createdAt,value
2019-05-22T00:01:00.220Z,40.08
2019-05-22T00:04:27.277Z,45.92
2019-05-22T00:07:30.859Z,42.43
2019-05-22T00:10:33.919Z,43.08
2019-05-22T00:13:41.833Z,41.88
2019-05-22T00:16:45.032Z,41.00
2019-05-22T00:19:47.970Z,40.03
2019-05-22T00:22:51.059Z,42.15
2019-05-22T00:25:54.488Z,40.20
2019-05-22T00:28:56.870Z,40.63
2019-05-22T00:31:58.734Z,40.85
2019-05-22T00:35:00.552Z,39.45
2019-05-22T00:38:03.002Z,38.35
2019-05-22T00:41:10.406Z,40.10
2019-05-22T00:44:14.106Z,36.17
2019-05-22T00:47:17.810Z,37.65
2019-05-22T00:50:24.902Z,37.67
2019-05-22T00:53:49.416Z,38.58
2019-05-22T00:57:08.780Z,35.05
2019-05-22T01:00:34.858Z,36.77
2019-05-22T01:03:36.936Z,37.48
2019-05-22T01:06:38.838Z,32.42
2019-05-22T01:09:42.259Z,37.48
2019-05-22T01:12:46.978Z,38.20
2019-05-22T01:15:50.756Z,38.67
2019-05-22T01:18:53.721Z,48.20
2019-05-22T01:21:56.384Z,39.45
2019-05-22T01:25:00.179Z,39.00
2019-05-22T01:28:04.152Z,46.50
2019-05-22T01:31:24.447Z,43.00
2019-05-22T01:34:30.043Z,36.33
2019-05-22T01:37:32.440Z,38.90
2019-05-22T01:40:42.793Z,39.45
2019-05-22T01:43:46.257Z,42.30
2019-05-22T01:46:49.516Z,41.73
2019-05-22T01:49:54.073Z,38.35
2019-05-22T01:52:56.023Z,39.40
2019-05-22T01:55:59.282Z,48.20
2019-05-22T01:59:02.264Z,43.45
2019-05-22T02:02:04.340Z,43.48
2019-05-22T02:05:08.243Z,44.00
2019-05-22T02:08:10.341Z,43.17
2019-05-22T02:11:16.276Z,41.88
2019-05-22T02:14:18.720Z,48.83
2019-05-22T02:17:27.015Z,49.40
2019-05-22T02:20:29.632Z,45.28
2019-05-22T02:23:32.473Z,44.15
2019-05-22T02:26:34.303Z,43.78
2019-05-22T02:29:35.751Z,48.50
2019-05-22T02:32:38.972Z,41.25
2019-05-22T02:35:40.784Z,43.48
2019-05-22T02:38:42.101Z,39.88
2019-05-22T02:41:48.367Z,45.67
2019-05-22T02:44:50.300Z,43.78
2019-05-22T02:47:53.123Z,41.98
2019-05-22T02:50:54.854Z,42.27
2019-05-22T02:53:59.213Z,40.85
2019-05-22T02:57:01.349Z,42.83
2019-05-22T03:00:03.092Z,40.50
2019-05-22T03:03:08.015Z,35.48
2019-05-22T03:06:13.310Z,36.45
2019-05-22T03:09:22.680Z,35.98
2019-05-22T03:12:24.313Z,36.13
2019-05-22T03:15:28.234Z,39.90
2019-05-22T03:18:30.339Z,39.75
2019-05-22T03:21:31.972Z,39.53
2019-05-22T03:24:35.029Z,35.92
2019-05-22T03:27:44.076Z,35.70
2019-05-22T03:30:47.181Z,35.98
2019-05-22T03:33:49.883Z,35.03
2019-05-22T03:36:52.404Z,37.90
2019-05-22T03:39:53.709Z,39.48
2019-05-22T03:42:55.433Z,38.40
2019-05-22T03:45:59.628Z,40.50
2019-05-22T03:49:01.359Z,35.25
2019-05-22T03:52:03.698Z,40.35
2019-05-22T03:55:07.540Z,37.95
2019-05-22T03:58:09.447Z,45.28
2019-05-22T04:01:11.379Z,41.15
2019-05-22T04:04:33.999Z,39.13
2019-05-22T04:07:35.562Z,38.23
2019-05-22T04:10:54.784Z,35.53
2019-05-22T04:13:57.110Z,38.00
2019-05-22T04:16:59.417Z,34.23
2019-05-22T04:20:02.175Z,32.40
2019-05-22T04:23:04.196Z,33.20
2019-05-22T04:26:11.556Z,35.52
2019-05-22T04:29:14.315Z,34.27
2019-05-22T04:32:27.561Z,32.75
2019-05-22T04:35:29.077Z,32.30
2019-05-22T04:38:30.785Z,37.45
2019-05-22T04:41:32.723Z,36.98
2019-05-22T04:44:34.049Z,34.50
2019-05-22T04:47:37.555Z,36.15
2019-05-22T04:50:39.094Z,35.30
2019-05-22T04:53:40.445Z,34.38
2019-05-22T04:56:42.161Z,39.70
2019-05-22T04:59:43.616Z,38.08
2019-05-22T05:02:44.959Z,40.43
2019-05-22T05:05:49.928Z,43.45
2019-05-22T05:08:52.259Z,39.23
2019-05-22T05:11:53.662Z,41.35
2019-05-22T05:14:56.204Z,41.80
2019-05-22T05:17:57.528Z,36.77
2019-05-22T05:20:58.934Z,34.73
2019-05-22T05:24:01.517Z,29.42
2019-05-22T05:27:03.008Z,31.05
2019-05-22T05:30:04.540Z,34.20
2019-05-22T05:33:06.665Z,38.98
2019-05-22T05:36:09.070Z,35.38
2019-05-22T05:40:04.566Z,41.20
2019-05-22T05:43:09.173Z,36.70
2019-05-22T05:46:10.507Z,35.60
2019-05-22T05:49:12.180Z,32.42
2019-05-22T05:52:13.625Z,33.38
2019-05-22T05:55:15.733Z,28.77
2019-05-22T05:58:29.805Z,20.57
2019-05-22T06:01:35.221Z,19.00
2019-05-22T06:04:39.510Z,16.17
2019-05-22T06:07:41.216Z,16.80
2019-05-22T06:11:50.470Z,19.57
2019-05-22T06:14:52.697Z,21.20
2019-05-22T06:18:37.425Z,20.00
2019-05-22T06:21:44.206Z,17.42
2019-05-22T06:25:05.073Z,18.05
2019-05-22T06:28:06.939Z,21.80
2019-05-22T06:31:10.524Z,15.65
2019-05-22T06:34:12.701Z,14.60
2019-05-22T06:37:32.465Z,16.73
2019-05-22T06:40:34.295Z,18.20
2019-05-22T06:44:31.065Z,16.30
2019-05-22T06:47:32.491Z,15.10
2019-05-22T06:50:33.876Z,16.20
2019-05-22T06:53:35.214Z,16.57
2019-05-22T06:56:36.540Z,15.08
2019-05-22T06:59:38.460Z,17.67
2019-05-22T07:02:39.749Z,20.12
2019-05-22T07:05:41.752Z,15.50
2019-05-22T07:08:43.276Z,17.35
2019-05-22T07:11:45.314Z,19.23
2019-05-22T07:15:45.412Z,17.12
2019-05-22T07:18:47.190Z,19.17
2019-05-22T07:21:48.680Z,17.35
2019-05-22T07:24:50.120Z,14.65
2019-05-22T07:27:51.651Z,18.20
2019-05-22T07:30:53.696Z,18.27
2019-05-22T07:33:55.540Z,20.23
2019-05-22T07:36:56.987Z,14.98
2019-05-22T07:39:58.417Z,15.30
2019-05-22T07:42:59.787Z,15.83
2019-05-22T07:46:01.335Z,12.03
2019-05-22T07:49:02.765Z,11.65
2019-05-22T07:52:06.376Z,13.48
2019-05-22T07:55:07.880Z,12.07
2019-05-22T07:58:16.159Z,14.23
2019-05-22T08:01:18.206Z,11.03
2019-05-22T08:04:21.515Z,11.90
2019-05-22T08:07:24.781Z,15.28
2019-05-22T08:10:26.867Z,11.08
2019-05-22T08:13:29.172Z,10.72
2019-05-22T08:16:30.706Z,9.35
2019-05-22T08:19:33.712Z,11.93
2019-05-22T08:22:36.217Z,11.60
2019-05-22T08:25:38.260Z,12.68
2019-05-22T08:28:41.130Z,12.50
2019-05-22T08:31:42.726Z,12.37
2019-05-22T08:34:44.339Z,13.90
2019-05-22T08:37:49.033Z,9.35
2019-05-22T08:40:52.752Z,7.15
2019-05-22T08:44:14.401Z,6.03
2019-05-22T08:46:58.382Z,14.83
2019-05-22T08:50:00.103Z,7.00
2019-05-22T08:53:02.191Z,5.53
2019-05-22T08:56:04.293Z,5.75
2019-05-22T08:59:18.894Z,8.58
2019-05-22T09:02:09.301Z,7.08
2019-05-22T09:05:12.075Z,6.87
2019-05-22T09:08:13.636Z,6.90
2019-05-22T09:11:15.247Z,4.50
2019-05-22T09:14:16.873Z,3.67
2019-05-22T09:17:20.364Z,3.87
2019-05-22T09:20:23.986Z,4.78
2019-05-22T09:23:26.448Z,4.90
2019-05-22T09:26:28.937Z,4.97
2019-05-22T09:29:30.655Z,4.00
2019-05-22T09:32:32.214Z,5.62
2019-05-22T09:35:34.009Z,7.12
2019-05-22T09:38:35.762Z,18.62
2019-05-22T09:41:37.716Z,6.60
2019-05-22T09:44:39.495Z,5.20
2019-05-22T09:47:44.464Z,6.15
2019-05-22T09:50:46.162Z,5.87
2019-05-22T09:53:47.948Z,5.50
2019-05-22T09:56:49.550Z,5.65
2019-05-22T09:59:51.337Z,4.58
2019-05-22T10:02:52.975Z,8.10
2019-05-22T10:05:56.007Z,5.22
2019-05-22T10:08:57.613Z,8.70
2019-05-22T10:11:59.504Z,4.20
2019-05-22T10:15:01.469Z,5.97
2019-05-22T10:18:04.297Z,4.83
2019-05-22T10:21:06.865Z,4.55
2019-05-22T10:24:09.099Z,6.17
2019-05-22T10:27:13.463Z,4.45
2019-05-22T10:30:18.452Z,5.65
2019-05-22T10:33:20.021Z,6.22
2019-05-22T10:36:22.820Z,5.80
2019-05-22T10:39:24.997Z,4.92
2019-05-22T10:42:26.796Z,4.60
2019-05-22T10:45:28.704Z,4.80
2019-05-22T10:48:31.385Z,4.67
2019-05-22T10:51:32.918Z,7.10
2019-05-22T10:54:34.493Z,5.28
2019-05-22T10:57:40.416Z,6.70
2019-05-22T11:00:39.685Z,4.20
2019-05-22T11:03:41.668Z,5.97
2019-05-22T11:06:43.285Z,4.33
2019-05-22T11:09:45.441Z,5.83
2019-05-22T11:12:47.243Z,4.20
2019-05-22T11:15:49.055Z,5.83
2019-05-22T11:18:51.432Z,4.37
2019-05-22T11:21:56.652Z,4.10
2019-05-22T11:24:56.211Z,4.70
2019-05-22T11:27:57.740Z,6.50
2019-05-22T11:31:00.024Z,6.17
2019-05-22T11:34:01.576Z,6.53
2019-05-22T11:37:03.222Z,6.35
2019-05-22T11:40:05.778Z,6.85
2019-05-22T11:43:07.571Z,5.70
2019-05-22T11:46:09.775Z,4.12
2019-05-22T11:49:12.380Z,4.10
2019-05-22T11:52:15.451Z,5.37
2019-05-22T11:55:17.520Z,4.42
2019-05-22T11:58:19.036Z,3.55
2019-05-22T12:01:20.561Z,7.05
2019-05-22T12:04:22.562Z,6.37
2019-05-22T12:07:24.604Z,4.92
2019-05-22T12:10:26.632Z,5.00
2019-05-22T12:13:28.628Z,4.58
2019-05-22T12:16:30.737Z,4.50
2019-05-22T12:19:32.309Z,3.10
2019-05-22T12:22:34.574Z,3.12
2019-05-22T12:25:36.249Z,4.72
2019-05-22T12:28:39.152Z,4.12
2019-05-22T12:31:40.631Z,4.00
2019-05-22T12:34:42.578Z,3.08
2019-05-22T12:37:44.511Z,6.72
2019-05-22T12:40:46.799Z,3.62
2019-05-22T12:43:49.075Z,5.62
2019-05-22T12:46:51.713Z,4.58
2019-05-22T12:49:54.098Z,6.58
2019-05-22T12:52:56.958Z,4.75
2019-05-22T12:55:59.974Z,5.03
2019-05-22T12:59:02.038Z,5.67
2019-05-22T13:02:05.499Z,4.30
2019-05-22T13:05:08.716Z,3.90
2019-05-22T13:08:12.600Z,4.40
2019-05-22T13:11:15.335Z,4.05
2019-05-22T13:14:17.517Z,4.72
2019-05-22T13:17:19.945Z,3.90
2019-05-22T13:20:41.351Z,4.42
2019-05-22T13:23:34.319Z,3.62
2019-05-22T13:26:39.210Z,3.67
2019-05-22T13:29:41.460Z,3.87
2019-05-22T13:32:45.360Z,5.05
2019-05-22T13:35:48.012Z,4.62
2019-05-22T13:38:50.230Z,5.45
2019-05-22T13:41:52.212Z,7.67
2019-05-22T13:44:54.703Z,3.33
2019-05-22T13:47:56.644Z,5.22
2019-05-22T13:51:00.098Z,3.67
2019-05-22T13:54:02.051Z,4.03
2019-05-22T13:57:06.188Z,5.10
2019-05-22T14:00:09.458Z,3.27
2019-05-22T14:03:11.979Z,7.40
2019-05-22T14:06:15.245Z,4.50
2019-05-22T14:09:21.359Z,3.92
2019-05-22T14:12:22.023Z,4.90
2019-05-22T14:15:23.774Z,7.03
2019-05-22T14:18:25.459Z,5.53
2019-05-22T14:21:27.250Z,5.17
2019-05-22T14:24:28.731Z,4.08
2019-05-22T14:27:30.354Z,3.00
2019-05-22T14:30:32.734Z,3.83
2019-05-22T14:33:34.354Z,4.75
2019-05-22T14:36:36.972Z,3.27
2019-05-22T14:39:39.767Z,3.12
2019-05-22T14:42:41.539Z,3.47
2019-05-22T14:45:44.815Z,3.40
2019-05-22T14:48:46.405Z,4.05
2019-05-22T14:51:48.087Z,3.35
2019-05-22T14:54:50.783Z,4.65
2019-05-22T14:57:52.527Z,5.72
2019-05-22T15:00:55.375Z,4.97
2019-05-22T15:03:57.509Z,2.70
2019-05-22T15:06:59.180Z,3.65
2019-05-22T15:10:00.823Z,7.58
2019-05-22T15:13:03.685Z,3.02
2019-05-22T15:16:05.128Z,2.95
2019-05-22T15:19:07.518Z,4.58
2019-05-22T15:22:09.674Z,2.70
2019-05-22T15:25:11.622Z,2.50
2019-05-22T15:28:14.198Z,3.30
2019-05-22T15:31:16.195Z,2.98
2019-05-22T15:34:17.920Z,3.42
2019-05-22T15:37:21.343Z,3.02
2019-05-22T15:40:25.291Z,3.02
2019-05-22T15:43:28.136Z,2.42
2019-05-22T15:46:31.076Z,2.25
2019-05-22T15:49:32.931Z,2.45
2019-05-22T15:52:36.994Z,3.40
2019-05-22T15:55:41.418Z,3.05
2019-05-22T15:58:49.892Z,2.00
2019-05-22T16:01:51.684Z,2.17
2019-05-22T16:04:53.422Z,1.85
2019-05-22T16:07:55.428Z,2.17
2019-05-22T16:11:00.741Z,3.27
2019-05-22T16:14:03.404Z,2.10
2019-05-22T16:17:07.115Z,1.98
2019-05-22T16:20:09.654Z,2.35
2019-05-22T16:23:12.039Z,2.33
2019-05-22T16:26:13.897Z,2.75
2019-05-22T16:29:15.958Z,2.17
2019-05-22T16:32:21.631Z,2.27
2019-05-22T16:35:23.704Z,2.00
2019-05-22T16:38:26.463Z,2.17
2019-05-22T16:41:28.145Z,2.20
2019-05-22T16:44:29.697Z,2.72
2019-05-22T16:47:33.527Z,1.98
2019-05-22T16:50:35.024Z,1.98
2019-05-22T16:53:37.409Z,2.55
2019-05-22T16:56:40.548Z,2.65
2019-05-22T16:59:42.814Z,2.55
2019-05-22T17:02:45.767Z,2.20
2019-05-22T17:05:47.670Z,3.30
2019-05-22T17:08:50.295Z,3.77
2019-05-22T17:11:52.580Z,2.65
2019-05-22T17:14:55.657Z,2.22
2019-05-22T17:17:57.322Z,2.00
2019-05-22T17:21:00.792Z,3.35
2019-05-22T17:24:04.730Z,1.98
2019-05-22T17:27:08.201Z,1.98
2019-05-22T17:30:12.020Z,2.30
2019-05-22T17:33:13.931Z,1.70
2019-05-22T17:36:16.417Z,2.42
2019-05-22T17:39:18.376Z,1.90
2019-05-22T17:42:23.509Z,2.30
2019-05-22T17:45:28.946Z,1.92
2019-05-22T17:48:30.911Z,2.00
2019-05-22T17:51:33.399Z,2.27
2019-05-22T17:54:35.985Z,1.77
2019-05-22T17:57:38.048Z,2.17
2019-05-22T18:00:42.852Z,2.00
2019-05-22T18:03:44.436Z,2.00
2019-05-22T18:06:45.995Z,2.17
2019-05-22T18:09:47.521Z,1.92
2019-05-22T18:12:49.108Z,2.45
2019-05-22T18:15:50.975Z,3.25
2019-05-22T18:18:52.929Z,3.15
2019-05-22T18:21:54.558Z,1.90
2019-05-22T18:24:56.147Z,3.22
2019-05-22T18:27:58.263Z,2.80
2019-05-22T18:30:59.857Z,2.58
2019-05-22T18:34:01.403Z,5.80
2019-05-22T18:37:02.960Z,2.40
2019-05-22T18:40:04.859Z,2.52
2019-05-22T18:43:06.408Z,4.62
2019-05-22T18:46:14.873Z,3.60
2019-05-22T18:49:16.385Z,2.95
2019-05-22T18:52:18.609Z,3.12
2019-05-22T18:55:20.193Z,3.12
2019-05-22T18:58:21.725Z,2.87
2019-05-22T19:01:23.524Z,2.60
2019-05-22T19:04:25.109Z,2.60
2019-05-22T19:07:26.742Z,2.40
2019-05-22T19:10:28.658Z,2.47
2019-05-22T19:13:32.402Z,8.80
2019-05-22T19:16:33.907Z,2.85
2019-05-22T19:19:36.896Z,2.80
2019-05-22T19:22:58.042Z,3.00
2019-05-22T19:25:45.299Z,3.42
2019-05-22T19:28:47.235Z,4.20
2019-05-22T19:31:48.861Z,3.80
2019-05-22T19:34:50.367Z,3.33
2019-05-22T19:37:52.654Z,3.10
2019-05-22T19:40:54.440Z,2.67
2019-05-22T19:43:56.057Z,2.60
2019-05-22T19:47:08.341Z,2.70
2019-05-22T19:50:22.946Z,2.65
2019-05-22T19:53:19.116Z,3.72
2019-05-22T19:56:18.751Z,3.22
2019-05-22T19:59:20.720Z,2.60
2019-05-22T20:02:23.061Z,3.30
2019-05-22T20:05:25.561Z,3.55
2019-05-22T20:08:27.510Z,4.08
2019-05-22T20:11:29.934Z,3.10
2019-05-22T20:14:31.961Z,3.70
2019-05-22T20:17:33.940Z,4.22
2019-05-22T20:20:36.329Z,3.45
2019-05-22T20:23:38.013Z,2.70
2019-05-22T20:26:39.660Z,3.00
2019-05-22T20:29:42.196Z,2.65
2019-05-22T20:32:43.827Z,4.67
2019-05-22T20:35:45.623Z,3.02
2019-05-22T20:38:47.223Z,3.20
2019-05-22T20:41:48.823Z,4.90
2019-05-22T20:44:51.252Z,3.58
2019-05-22T20:48:07.854Z,2.80
2019-05-22T20:51:11.929Z,4.37
2019-05-22T20:54:15.260Z,3.85
2019-05-22T20:57:20.072Z,4.45
2019-05-22T21:00:21.949Z,4.97
2019-05-22T21:03:25.826Z,4.37
2019-05-22T21:06:30.070Z,3.27
2019-05-22T21:09:33.801Z,3.05
2019-05-22T21:12:36.376Z,2.77
2019-05-22T21:15:38.614Z,3.00
2019-05-22T21:18:47.056Z,3.12
2019-05-22T21:21:49.264Z,3.20
2019-05-22T21:24:52.840Z,2.60
2019-05-22T21:27:54.848Z,3.95
2019-05-22T21:30:57.695Z,3.10
2019-05-22T21:33:59.568Z,3.12
2019-05-22T21:37:01.386Z,2.83
2019-05-22T21:40:04.079Z,3.00
2019-05-22T21:43:07.128Z,3.45
2019-05-22T21:46:08.671Z,3.08
2019-05-22T21:49:10.898Z,3.10
2019-05-22T21:52:13.155Z,4.17
2019-05-22T21:55:16.144Z,3.58
2019-05-22T21:58:19.501Z,4.03
2019-05-22T22:01:34.653Z,3.35
2019-05-22T22:04:37.957Z,3.55
2019-05-22T22:07:40.479Z,3.58
2019-05-22T22:10:42.580Z,5.45
2019-05-22T22:13:45.341Z,3.52
2019-05-22T22:16:47.841Z,3.95
2019-05-22T22:19:50.222Z,3.40
2019-05-22T22:22:51.968Z,3.33
2019-05-22T22:25:53.620Z,4.85
2019-05-22T22:28:56.059Z,3.60
2019-05-22T22:32:00.562Z,4.22
2019-05-22T22:35:02.177Z,4.27
2019-05-22T22:38:04.354Z,4.42
2019-05-22T22:41:09.377Z,4.03
2019-05-22T22:44:12.355Z,4.50
2019-05-22T22:47:20.112Z,3.33
2019-05-22T22:50:23.186Z,3.80
2019-05-22T22:53:25.541Z,4.20
2019-05-22T22:56:29.168Z,3.43
2019-05-22T22:59:30.796Z,5.65
2019-05-22T23:02:35.270Z,6.03
2019-05-22T23:05:37.153Z,4.20
2019-05-22T23:08:39.780Z,4.22
2019-05-22T23:11:43.483Z,4.67
2019-05-22T23:14:53.948Z,5.55
2019-05-22T23:17:55.887Z,4.83
2019-05-22T23:20:54.947Z,6.25
2019-05-22T23:23:54.023Z,6.78
2019-05-22T23:26:56.116Z,6.75
2019-05-22T23:30:00.077Z,7.83
2019-05-22T23:33:02.633Z,6.47
2019-05-22T23:36:04.140Z,7.10
2019-05-22T23:39:11.093Z,6.42
2019-05-22T23:42:19.220Z,6.97
2019-05-22T23:45:22.540Z,6.47
2019-05-22T23:48:24.315Z,6.33
2019-05-22T23:51:25.951Z,7.87
2019-05-22T23:54:28.652Z,5.33
2019-05-22T23:57:30.193Z,5.97
